createdAt,value
2018-12-15T00:00:34.929Z,5.0
2018-12-15T00:01:34.919Z,4.5
2018-12-15T00:02:34.908Z,5.8
2018-12-15T00:03:34.896Z,6.5
2018-12-15T00:04:34.884Z,6.5
2018-12-15T00:05:34.878Z,6.3
2018-12-15T00:06:34.862Z,6.5
2018-12-15T00:07:34.849Z,7.0
2018-12-15T00:08:34.839Z,7.4
2018-12-15T00:09:34.829Z,7.0
2018-12-15T00:10:34.815Z,6.1
2018-12-15T00:11:34.808Z,4.3
2018-12-15T00:12:34.793Z,6.1
2018-12-15T00:13:34.782Z,6.0
2018-12-15T00:14:34.770Z,6.9
2018-12-15T00:15:34.759Z,5.9
2018-12-15T00:16:34.750Z,7.1
2018-12-15T00:17:34.739Z,6.9
2018-12-15T00:18:34.727Z,6.5
2018-12-15T00:19:34.715Z,6.0
2018-12-15T00:20:34.703Z,5.5
2018-12-15T00:21:34.693Z,3.7
2018-12-15T00:22:34.683Z,5.4
2018-12-15T00:23:34.672Z,6.8
2018-12-15T00:24:34.663Z,5.4
2018-12-15T00:25:34.650Z,2.7
2018-12-15T00:26:34.637Z,4.0
2018-12-15T00:27:34.626Z,5.8
2018-12-15T00:28:34.616Z,4.6
2018-12-15T00:29:34.608Z,3.5
2018-12-15T00:30:34.596Z,5.3
2018-12-15T00:31:34.586Z,5.1
2018-12-15T00:32:34.572Z,4.3
2018-12-15T00:33:34.583Z,5.3
2018-12-15T00:34:34.547Z,4.8
2018-12-15T00:35:34.539Z,4.5
2018-12-15T00:36:34.526Z,5.3
2018-12-15T00:37:34.513Z,4.8
2018-12-15T00:38:34.504Z,5.5
2018-12-15T00:39:34.491Z,5.1
2018-12-15T00:40:34.478Z,5.1
2018-12-15T00:41:34.469Z,5.4
2018-12-15T00:42:34.456Z,4.6
2018-12-15T00:43:34.443Z,4.6
2018-12-15T00:44:34.433Z,4.8
2018-12-15T00:45:34.424Z,5.0
2018-12-15T00:46:34.413Z,4.9
2018-12-15T00:47:34.398Z,4.9
2018-12-15T00:48:34.387Z,4.0
2018-12-15T00:49:34.377Z,4.5
2018-12-15T00:50:34.371Z,4.3
2018-12-15T00:51:34.357Z,5.0
2018-12-15T00:52:34.343Z,5.0
2018-12-15T00:53:34.332Z,4.0
2018-12-15T00:54:34.326Z,5.8
2018-12-15T00:55:34.309Z,5.5
2018-12-15T00:56:34.300Z,5.4
2018-12-15T00:57:34.286Z,4.6
2018-12-15T00:58:34.275Z,5.0
2018-12-15T00:59:34.267Z,5.5
2018-12-15T01:00:34.252Z,5.0
2018-12-15T01:01:34.241Z,4.5
2018-12-15T01:02:34.230Z,5.5
2018-12-15T01:03:34.220Z,4.0
2018-12-15T01:04:34.212Z,5.3
2018-12-15T01:05:34.202Z,4.3
2018-12-15T01:06:34.186Z,4.5
2018-12-15T01:07:35.246Z,5.9
2018-12-15T01:08:34.167Z,5.4
2018-12-15T01:09:34.153Z,5.0
2018-12-15T01:10:34.140Z,5.3
2018-12-15T01:11:34.133Z,5.5
2018-12-15T01:12:34.119Z,6.0
2018-12-15T01:13:34.117Z,4.9
2018-12-15T01:14:34.101Z,5.4
2018-12-15T01:15:34.089Z,5.8
2018-12-15T01:16:34.074Z,4.8
2018-12-15T01:17:34.065Z,5.1
2018-12-15T01:18:34.054Z,5.1
2018-12-15T01:19:34.043Z,4.5
2018-12-15T01:20:34.029Z,4.0
2018-12-15T01:21:34.017Z,5.0
2018-12-15T01:22:34.006Z,4.5
2018-12-15T01:23:34.001Z,5.1
2018-12-15T01:24:33.986Z,5.3
2018-12-15T01:25:33.978Z,4.5
2018-12-15T01:26:33.964Z,4.8
2018-12-15T01:27:33.952Z,5.8
2018-12-15T01:28:33.940Z,5.0
2018-12-15T01:29:33.927Z,4.5
2018-12-15T01:30:33.917Z,4.4
2018-12-15T01:31:33.904Z,5.0
2018-12-15T01:32:33.894Z,4.8
2018-12-15T01:33:33.888Z,5.9
2018-12-15T01:34:33.872Z,5.5
2018-12-15T01:35:33.859Z,5.4
2018-12-15T01:36:33.853Z,4.8
2018-12-15T01:37:33.837Z,5.9
2018-12-15T01:38:33.824Z,4.6
2018-12-15T01:39:33.814Z,5.0
2018-12-15T01:40:33.803Z,5.1
2018-12-15T01:41:33.791Z,5.0
2018-12-15T01:42:33.782Z,5.1
2018-12-15T01:43:33.770Z,4.3
2018-12-15T01:44:33.757Z,4.5
2018-12-15T01:45:33.746Z,4.6
2018-12-15T01:46:33.735Z,4.5
2018-12-15T01:47:33.723Z,3.9
2018-12-15T01:48:33.720Z,4.5
2018-12-15T01:49:33.708Z,4.6
2018-12-15T01:50:33.690Z,4.0
2018-12-15T01:51:33.678Z,4.6
2018-12-15T01:52:33.666Z,4.0
2018-12-15T01:53:33.661Z,4.1
2018-12-15T01:54:33.645Z,4.5
2018-12-15T01:55:33.634Z,4.0
2018-12-15T01:56:33.624Z,4.4
2018-12-15T01:57:33.611Z,2.9
2018-12-15T01:58:33.599Z,3.2
2018-12-15T01:59:33.589Z,2.5
2018-12-15T02:00:33.581Z,3.7
2018-12-15T02:01:33.566Z,4.0
2018-12-15T02:02:33.553Z,3.9
2018-12-15T02:03:33.579Z,4.5
2018-12-15T02:04:33.538Z,5.1
2018-12-15T02:05:33.520Z,4.6
2018-12-15T02:06:33.509Z,3.7
2018-12-15T02:07:33.501Z,4.0
2018-12-15T02:08:33.487Z,4.9
2018-12-15T02:09:33.474Z,4.5
2018-12-15T02:10:33.464Z,4.1
2018-12-15T02:11:33.456Z,4.4
2018-12-15T02:12:33.440Z,4.5
2018-12-15T02:13:33.432Z,4.1
2018-12-15T02:14:33.418Z,4.4
2018-12-15T02:15:33.409Z,3.7
2018-12-15T02:16:33.397Z,4.4
2018-12-15T02:17:33.847Z,4.3
2018-12-15T02:18:33.372Z,3.5
2018-12-15T02:19:33.362Z,3.7
2018-12-15T02:20:33.353Z,4.8
2018-12-15T02:21:33.340Z,4.0
2018-12-15T02:22:33.330Z,3.7
2018-12-15T02:23:33.323Z,3.9
2018-12-15T02:24:33.310Z,4.0
2018-12-15T02:25:33.296Z,4.3
2018-12-15T02:26:33.286Z,4.1
2018-12-15T02:27:33.275Z,3.4
2018-12-15T02:28:33.262Z,3.7
2018-12-15T02:29:33.250Z,3.4
2018-12-15T02:30:33.237Z,3.9
2018-12-15T02:31:33.238Z,3.9
2018-12-15T02:32:33.215Z,4.3
2018-12-15T02:33:33.205Z,3.0
2018-12-15T02:34:33.192Z,3.5
2018-12-15T02:35:33.191Z,3.0
2018-12-15T02:36:33.174Z,2.5
2018-12-15T02:37:33.158Z,2.9
2018-12-15T02:38:33.148Z,3.2
2018-12-15T02:39:33.137Z,3.5
2018-12-15T02:40:33.127Z,3.2
2018-12-15T02:41:33.136Z,3.7
2018-12-15T02:42:33.112Z,3.5
2018-12-15T02:43:33.095Z,3.0
2018-12-15T02:44:33.083Z,3.7
2018-12-15T02:45:33.078Z,3.9
2018-12-15T02:46:33.060Z,3.0
2018-12-15T02:47:33.048Z,2.7
2018-12-15T02:48:33.041Z,3.0
2018-12-15T02:49:33.024Z,2.2
2018-12-15T02:50:33.014Z,3.0
2018-12-15T02:51:33.007Z,3.0
2018-12-15T02:52:32.992Z,3.0
2018-12-15T02:53:32.980Z,3.5
2018-12-15T02:54:32.976Z,3.5
2018-12-15T02:55:32.957Z,2.2
2018-12-15T02:56:32.952Z,2.2
2018-12-15T02:57:32.936Z,2.5
2018-12-15T02:58:32.934Z,3.0
2018-12-15T02:59:32.917Z,2.4
2018-12-15T03:00:32.905Z,2.5
2018-12-15T03:01:32.892Z,2.4
2018-12-15T03:02:32.880Z,2.5
2018-12-15T03:03:32.891Z,2.7
2018-12-15T03:04:32.863Z,2.2
2018-12-15T03:05:32.845Z,2.5
2018-12-15T03:06:32.841Z,2.2
2018-12-15T03:07:32.824Z,1.6
2018-12-15T03:08:32.818Z,3.0
2018-12-15T03:09:32.810Z,3.2
2018-12-15T03:10:32.793Z,2.5
2018-12-15T03:11:32.783Z,1.7
2018-12-15T03:12:32.766Z,2.7
2018-12-15T03:13:32.758Z,2.5
2018-12-15T03:14:32.748Z,2.7
2018-12-15T03:15:32.736Z,2.7
2018-12-15T03:16:32.722Z,3.0
2018-12-15T03:17:32.711Z,3.0
2018-12-15T03:18:32.702Z,2.9
2018-12-15T03:19:32.688Z,3.7
2018-12-15T03:20:32.677Z,3.4
2018-12-15T03:21:32.668Z,2.7
2018-12-15T03:22:32.666Z,2.7
2018-12-15T03:23:32.646Z,2.5
2018-12-15T03:24:32.634Z,2.9
2018-12-15T03:25:32.621Z,2.9
2018-12-15T03:26:32.620Z,2.7
2018-12-15T03:27:32.620Z,2.5
2018-12-15T03:28:32.628Z,3.0
2018-12-15T03:29:32.579Z,2.9
2018-12-15T03:30:32.585Z,2.5
2018-12-15T03:31:34.369Z,3.0
2018-12-15T03:32:32.578Z,3.0
2018-12-15T03:33:32.579Z,2.7
2018-12-15T03:34:32.522Z,3.2
2018-12-15T03:35:32.509Z,2.7
2018-12-15T03:36:32.503Z,3.0
2018-12-15T03:37:32.486Z,3.5
2018-12-15T03:38:32.475Z,2.7
2018-12-15T03:39:32.463Z,2.9
2018-12-15T03:40:32.455Z,2.9
2018-12-15T03:41:32.449Z,2.7
2018-12-15T03:42:32.434Z,2.5
2018-12-15T03:43:32.421Z,2.5
2018-12-15T03:44:32.411Z,3.2
2018-12-15T03:45:32.400Z,3.4
2018-12-15T03:46:32.386Z,3.0
2018-12-15T03:47:32.385Z,3.2
2018-12-15T03:48:32.368Z,3.0
2018-12-15T03:49:32.355Z,3.4
2018-12-15T03:50:32.342Z,3.2
2018-12-15T03:51:32.337Z,2.5
2018-12-15T03:52:32.320Z,3.4
2018-12-15T03:53:32.308Z,3.2
2018-12-15T03:54:32.300Z,3.2
2018-12-15T03:55:32.286Z,3.2
2018-12-15T03:56:32.279Z,3.5
2018-12-15T03:57:32.263Z,2.7
2018-12-15T03:58:32.252Z,3.2
2018-12-15T03:59:32.240Z,3.0
2018-12-15T04:00:32.229Z,3.4
2018-12-15T04:01:32.297Z,3.5
2018-12-15T04:02:32.207Z,3.2
2018-12-15T04:03:32.196Z,3.7
2018-12-15T04:04:32.188Z,3.2
2018-12-15T04:05:32.176Z,3.7
2018-12-15T04:06:32.165Z,2.5
2018-12-15T04:07:32.180Z,3.2
2018-12-15T04:08:32.150Z,3.5
2018-12-15T04:09:32.131Z,3.7
2018-12-15T04:10:32.122Z,3.4
2018-12-15T04:11:32.107Z,3.5
2018-12-15T04:12:32.101Z,3.5
2018-12-15T04:13:32.089Z,3.0
2018-12-15T04:14:32.081Z,2.7
2018-12-15T04:15:32.063Z,3.7
2018-12-15T04:16:32.052Z,3.0
2018-12-15T04:17:32.043Z,3.5
2018-12-15T04:18:32.033Z,3.7
2018-12-15T04:19:32.037Z,3.7
2018-12-15T04:20:32.010Z,3.2
2018-12-15T04:21:32.018Z,3.9
2018-12-15T04:22:31.986Z,3.2
2018-12-15T04:23:31.978Z,3.5
2018-12-15T04:24:31.967Z,3.2
2018-12-15T04:25:31.997Z,3.5
2018-12-15T04:26:31.950Z,4.0
2018-12-15T04:27:31.939Z,3.7
2018-12-15T04:28:31.920Z,3.5
2018-12-15T04:29:31.959Z,4.3
2018-12-15T04:30:31.901Z,4.0
2018-12-15T04:31:31.899Z,3.7
2018-12-15T04:32:31.883Z,3.4
2018-12-15T04:33:31.896Z,3.5
2018-12-15T04:34:31.863Z,4.5
2018-12-15T04:35:31.848Z,3.7
2018-12-15T04:36:31.831Z,3.4
2018-12-15T04:37:31.862Z,3.5
2018-12-15T04:38:31.815Z,3.2
2018-12-15T04:39:31.799Z,3.4
2018-12-15T04:40:31.786Z,3.7
2018-12-15T04:41:31.804Z,3.5
2018-12-15T04:42:31.765Z,5.5
2018-12-15T04:43:31.755Z,3.5
2018-12-15T04:44:31.740Z,3.2
2018-12-15T04:45:31.769Z,3.4
2018-12-15T04:46:31.720Z,3.0
2018-12-15T04:47:31.710Z,3.7
2018-12-15T04:48:31.706Z,4.5
2018-12-15T04:49:31.714Z,3.4
2018-12-15T04:50:31.674Z,3.7
2018-12-15T04:51:31.672Z,3.7
2018-12-15T04:52:31.650Z,3.2
2018-12-15T04:53:31.686Z,3.5
2018-12-15T04:54:31.641Z,3.5
2018-12-15T04:55:31.623Z,4.0
2018-12-15T04:56:31.610Z,5.0
2018-12-15T04:57:31.621Z,3.5
2018-12-15T04:58:31.590Z,3.5
2018-12-15T04:59:31.577Z,3.4
2018-12-15T05:00:31.560Z,3.5
2018-12-15T05:01:31.549Z,4.5
2018-12-15T05:02:31.539Z,3.9
2018-12-15T05:03:31.534Z,3.5
2018-12-15T05:04:31.519Z,3.2
2018-12-15T05:05:31.508Z,3.9
2018-12-15T05:06:31.496Z,3.4
2018-12-15T05:07:31.484Z,3.5
2018-12-15T05:08:31.475Z,4.0
2018-12-15T05:09:31.458Z,4.1
2018-12-15T05:10:31.448Z,3.2
2018-12-15T05:11:31.437Z,3.2
2018-12-15T05:12:31.425Z,3.9
2018-12-15T05:13:31.414Z,4.0
2018-12-15T05:14:31.403Z,3.7
2018-12-15T05:15:31.395Z,2.9
2018-12-15T05:16:31.382Z,3.0
2018-12-15T05:17:31.368Z,4.0
2018-12-15T05:18:31.356Z,3.7
2018-12-15T05:19:31.348Z,3.5
2018-12-15T05:20:31.338Z,4.0
2018-12-15T05:21:31.324Z,3.5
2018-12-15T05:22:31.314Z,3.0
2018-12-15T05:23:31.300Z,3.5
2018-12-15T05:24:31.289Z,3.7
2018-12-15T05:25:31.284Z,3.2
2018-12-15T05:26:31.267Z,3.7
2018-12-15T05:27:31.256Z,3.5
2018-12-15T05:28:31.246Z,3.9
2018-12-15T05:29:31.235Z,4.0
2018-12-15T05:30:31.225Z,3.2
2018-12-15T05:31:31.211Z,3.2
2018-12-15T05:32:31.207Z,4.4
2018-12-15T05:33:31.195Z,3.5
2018-12-15T05:34:31.178Z,3.4
2018-12-15T05:35:31.173Z,3.7
2018-12-15T05:36:31.157Z,2.7
2018-12-15T05:37:31.145Z,3.9
2018-12-15T05:38:31.136Z,4.3
2018-12-15T05:39:31.132Z,4.0
2018-12-15T05:40:31.117Z,3.5
2018-12-15T05:41:31.103Z,4.4
2018-12-15T05:42:31.089Z,3.5
2018-12-15T05:43:31.077Z,3.9
2018-12-15T05:44:31.065Z,3.7
2018-12-15T05:45:31.053Z,3.5
2018-12-15T05:46:31.047Z,3.5
2018-12-15T05:47:31.031Z,3.2
2018-12-15T05:48:31.021Z,5.6
2018-12-15T05:49:31.014Z,3.7
2018-12-15T05:50:30.996Z,3.4
2018-12-15T05:51:30.987Z,3.7
2018-12-15T05:52:30.976Z,3.7
2018-12-15T05:53:30.964Z,3.2
2018-12-15T05:54:30.953Z,3.7
2018-12-15T05:55:30.943Z,3.5
2018-12-15T05:56:30.932Z,4.4
2018-12-15T05:57:30.921Z,3.7
2018-12-15T05:58:30.919Z,4.0
2018-12-15T05:59:30.899Z,3.7
2018-12-15T06:00:30.890Z,3.9
2018-12-15T06:01:30.885Z,4.0
2018-12-15T06:02:30.870Z,3.9
2018-12-15T06:03:30.855Z,4.0
2018-12-15T06:04:30.842Z,3.2
2018-12-15T06:05:30.828Z,4.5
2018-12-15T06:06:30.818Z,3.9
2018-12-15T06:07:30.807Z,4.4
2018-12-15T06:08:30.795Z,4.1
2018-12-15T06:09:30.787Z,4.5
2018-12-15T06:10:30.773Z,4.4
2018-12-15T06:11:30.761Z,3.9
2018-12-15T06:12:30.751Z,3.5
2018-12-15T06:13:30.738Z,4.6
2018-12-15T06:14:30.730Z,4.0
2018-12-15T06:15:30.717Z,4.3
2018-12-15T06:16:30.706Z,4.4
2018-12-15T06:17:30.696Z,4.3
2018-12-15T06:18:31.816Z,4.1
2018-12-15T06:19:30.671Z,4.0
2018-12-15T06:20:30.665Z,4.0
2018-12-15T06:21:30.654Z,4.6
2018-12-15T06:22:30.637Z,3.9
2018-12-15T06:23:30.627Z,4.5
2018-12-15T06:24:30.616Z,5.0
2018-12-15T06:25:30.607Z,4.1
2018-12-15T06:26:30.596Z,4.1
2018-12-15T06:27:30.587Z,4.8
2018-12-15T06:28:30.571Z,4.0
2018-12-15T06:29:30.560Z,4.1
2018-12-15T06:30:30.551Z,4.4
2018-12-15T06:31:30.540Z,5.0
2018-12-15T06:32:30.526Z,4.8
2018-12-15T06:33:30.515Z,4.5
2018-12-15T06:34:30.504Z,4.1
2018-12-15T06:35:30.493Z,3.9
2018-12-15T06:36:30.480Z,4.09
2018-12-15T06:37:30.470Z,3.70
2018-12-15T06:38:30.457Z,3.79
2018-12-15T06:39:30.448Z,4.80
2018-12-15T06:40:30.437Z,4.30
2018-12-15T06:41:30.425Z,4.3
2018-12-15T06:42:30.414Z,4.50
2018-12-15T06:43:30.402Z,5.09
2018-12-15T06:44:30.391Z,4.50
2018-12-15T06:45:30.380Z,4.50
2018-12-15T06:46:30.369Z,4.19
2018-12-15T06:47:30.369Z,3.70
2018-12-15T06:48:30.345Z,4.80
2018-12-15T06:49:30.335Z,4.00
2018-12-15T06:50:30.329Z,4.19
2018-12-15T06:51:30.312Z,3.90
2018-12-15T06:52:30.300Z,4.00
2018-12-15T06:53:30.295Z,4.90
2018-12-15T06:54:30.279Z,4.00
2018-12-15T06:55:30.269Z,5.69
2018-12-15T06:56:30.257Z,3.90
2018-12-15T06:57:30.243Z,4.00
2018-12-15T06:58:30.244Z,5.00
2018-12-15T06:59:30.223Z,4.40
2018-12-15T07:00:30.214Z,6.40
2018-12-15T07:01:30.200Z,5.69
2018-12-15T07:02:30.188Z,5.19
2018-12-15T07:03:30.177Z,4.90
2018-12-15T07:04:30.168Z,5.00
2018-12-15T07:05:30.154Z,4.69
2018-12-15T07:06:30.144Z,4.69
2018-12-15T07:07:30.132Z,4.50
2018-12-15T07:08:30.121Z,5.19
2018-12-15T07:09:30.109Z,4.19
2018-12-15T07:10:30.098Z,7.50
2018-12-15T07:11:30.089Z,5.00
2018-12-15T07:12:30.079Z,5.40
2018-12-15T07:13:30.066Z,5.90
2018-12-15T07:14:30.060Z,11.80
2018-12-15T07:15:30.042Z,5.19
2018-12-15T07:16:30.032Z,5.00
2018-12-15T07:17:30.019Z,4.30
2018-12-15T07:18:30.009Z,4.50
2018-12-15T07:19:29.999Z,4.90
2018-12-15T07:20:29.988Z,4.09
2018-12-15T07:21:29.972Z,4.50
2018-12-15T07:22:29.965Z,4.59
2018-12-15T07:23:30.017Z,5.00
2018-12-15T07:24:29.939Z,5.59
2018-12-15T07:25:29.935Z,5.40
2018-12-15T07:26:29.919Z,6.00
2018-12-15T07:27:29.909Z,6.30
2018-12-15T07:28:29.901Z,5.19
2018-12-15T07:29:29.883Z,4.90
2018-12-15T07:30:29.871Z,5.00
2018-12-15T07:31:29.860Z,4.50
2018-12-15T07:32:29.850Z,5.19
2018-12-15T07:33:29.839Z,5.00
2018-12-15T07:34:29.828Z,4.59
2018-12-15T07:35:29.814Z,4.80
2018-12-15T07:36:29.804Z,4.69
2018-12-15T07:37:29.799Z,4.59
2018-12-15T07:38:29.784Z,5.00
2018-12-15T07:39:29.770Z,5.30
2018-12-15T07:40:29.764Z,6.69
2018-12-15T07:41:29.753Z,5.19
2018-12-15T07:42:29.737Z,5.09
2018-12-15T07:43:29.728Z,5.30
2018-12-15T07:44:29.714Z,5.00
2018-12-15T07:45:29.703Z,5.59
2018-12-15T07:46:29.690Z,5.09
2018-12-15T07:47:29.679Z,4.80
2018-12-15T07:48:29.673Z,4.50
2018-12-15T07:49:29.658Z,4.80
2018-12-15T07:50:29.653Z,4.50
2018-12-15T07:51:29.636Z,4.09
2018-12-15T07:52:29.625Z,4.40
2018-12-15T07:53:29.618Z,4.80
2018-12-15T07:54:29.601Z,4.90
2018-12-15T07:55:29.588Z,4.69
2018-12-15T07:56:29.579Z,5.19
2018-12-15T07:57:29.569Z,4.50
2018-12-15T07:58:29.554Z,4.00
2018-12-15T07:59:29.544Z,4.50
2018-12-15T08:00:29.532Z,5.50
2018-12-15T08:01:29.520Z,4.50
2018-12-15T08:02:29.511Z,4.90
2018-12-15T08:03:29.500Z,7.40
2018-12-15T08:04:29.487Z,5.19
2018-12-15T08:05:29.476Z,13.80
2018-12-15T08:06:29.464Z,5.19
2018-12-15T08:07:29.463Z,4.50
2018-12-15T08:08:29.443Z,5.30
2018-12-15T08:09:29.432Z,4.30
2018-12-15T08:10:29.419Z,11.60
2018-12-15T08:11:29.409Z,5.00
2018-12-15T08:12:29.405Z,5.30
2018-12-15T08:13:29.391Z,5.00
2018-12-15T08:14:29.377Z,4.69
2018-12-15T08:15:29.374Z,6.19
2018-12-15T08:16:29.355Z,4.69
2018-12-15T08:17:29.342Z,4.19
2018-12-15T08:18:29.336Z,4.19
2018-12-15T08:19:29.321Z,5.19
2018-12-15T08:20:29.308Z,5.40
2018-12-15T08:21:29.298Z,5.90
2018-12-15T08:22:29.287Z,5.19
2018-12-15T08:23:29.275Z,4.59
2018-12-15T08:24:29.266Z,5.00
2018-12-15T08:25:29.253Z,4.50
2018-12-15T08:26:29.245Z,5.00
2018-12-15T08:27:29.230Z,4.59
2018-12-15T08:28:29.219Z,4.80
2018-12-15T08:29:29.208Z,4.30
2018-12-15T08:30:29.198Z,5.19
2018-12-15T08:31:29.186Z,5.00
2018-12-15T08:32:29.174Z,4.50
2018-12-15T08:33:29.164Z,4.50
2018-12-15T08:34:29.154Z,5.09
2018-12-15T08:35:29.147Z,4.09
2018-12-15T08:36:29.131Z,4.19
2018-12-15T08:37:29.120Z,4.40
2018-12-15T08:38:29.111Z,3.90
2018-12-15T08:39:29.096Z,4.50
2018-12-15T08:40:29.085Z,4.90
2018-12-15T08:41:29.074Z,5.00
2018-12-15T08:42:29.063Z,5.50
2018-12-15T08:43:29.051Z,4.59
2018-12-15T08:44:29.041Z,5.40
2018-12-15T08:45:29.031Z,5.00
2018-12-15T08:46:29.024Z,5.40
2018-12-15T08:47:29.016Z,5.59
2018-12-15T08:48:28.996Z,4.80
2018-12-15T08:49:28.989Z,5.19
2018-12-15T08:50:28.975Z,5.19
2018-12-15T08:51:28.966Z,5.00
2018-12-15T08:52:28.960Z,5.00
2018-12-15T08:53:28.945Z,5.19
2018-12-15T08:54:28.931Z,4.59
2018-12-15T08:55:28.920Z,4.09
2018-12-15T08:56:28.911Z,4.69
2018-12-15T08:57:28.894Z,4.59
2018-12-15T08:58:28.888Z,4.80
2018-12-15T08:59:28.874Z,4.80
2018-12-15T09:00:28.867Z,5.19
2018-12-15T09:01:28.850Z,5.30
2018-12-15T09:02:28.839Z,4.80
2018-12-15T09:03:28.829Z,5.09
2018-12-15T09:04:28.818Z,4.09
2018-12-15T09:05:28.806Z,5.19
2018-12-15T09:06:28.796Z,5.80
2018-12-15T09:07:28.784Z,5.19
2018-12-15T09:08:28.774Z,5.09
2018-12-15T09:09:28.767Z,4.19
2018-12-15T09:10:28.767Z,4.59
2018-12-15T09:11:28.770Z,4.90
2018-12-15T09:12:28.775Z,5.00
2018-12-15T09:13:28.722Z,4.80
2018-12-15T09:14:28.719Z,4.40
2018-12-15T09:15:28.721Z,5.00
2018-12-15T09:16:28.726Z,4.80
2018-12-15T09:17:28.674Z,5.00
2018-12-15T09:18:28.668Z,5.19
2018-12-15T09:19:28.649Z,4.59
2018-12-15T09:20:28.641Z,5.09
2018-12-15T09:21:28.630Z,5.69
2018-12-15T09:22:28.617Z,5.90
2018-12-15T09:23:28.605Z,6.50
2018-12-15T09:24:28.600Z,6.19
2018-12-15T09:25:28.589Z,5.90
2018-12-15T09:26:28.573Z,5.09
2018-12-15T09:27:28.563Z,6.09
2018-12-15T09:28:28.558Z,6.19
2018-12-15T09:29:28.541Z,6.19
2018-12-15T09:30:28.529Z,5.59
2018-12-15T09:31:28.524Z,6.30
2018-12-15T09:32:28.504Z,6.80
2018-12-15T09:33:28.495Z,7.19
2018-12-15T09:34:28.482Z,6.80
2018-12-15T09:35:28.471Z,8.19
2018-12-15T09:36:28.461Z,6.50
2018-12-15T09:37:28.449Z,6.30
2018-12-15T09:38:28.437Z,6.59
2018-12-15T09:39:28.428Z,6.90
2018-12-15T09:40:28.415Z,6.09
2018-12-15T09:41:28.405Z,6.80
2018-12-15T09:42:28.398Z,8.50
2018-12-15T09:43:28.385Z,8.19
2018-12-15T09:44:28.373Z,8.00
2018-12-15T09:45:28.360Z,7.50
2018-12-15T09:46:28.348Z,6.90
2018-12-15T09:47:28.341Z,9.00
2018-12-15T09:48:28.325Z,6.19
2018-12-15T09:49:28.316Z,6.80
2018-12-15T09:50:28.304Z,5.30
2018-12-15T09:51:28.301Z,8.50
2018-12-15T09:52:28.284Z,5.59
2018-12-15T09:53:28.272Z,6.90
2018-12-15T09:54:28.260Z,5.80
2018-12-15T09:55:28.250Z,7.19
2018-12-15T09:56:28.240Z,6.00
2018-12-15T09:57:28.228Z,5.90
2018-12-15T09:58:28.215Z,5.90
2018-12-15T09:59:28.205Z,4.59
2018-12-15T10:00:28.196Z,6.00
2018-12-15T10:01:28.183Z,6.00
2018-12-15T10:02:28.174Z,5.50
2018-12-15T10:03:28.162Z,5.30
2018-12-15T10:04:28.155Z,6.90
2018-12-15T10:05:28.138Z,7.00
2018-12-15T10:06:28.129Z,6.00
2018-12-15T10:07:28.120Z,6.09
2018-12-15T10:08:28.110Z,6.00
2018-12-15T10:09:28.100Z,5.80
2018-12-15T10:10:28.084Z,7.00
2018-12-15T10:11:28.076Z,6.00
2018-12-15T10:12:28.062Z,5.59
2018-12-15T10:13:28.049Z,6.30
2018-12-15T10:14:28.040Z,5.90
2018-12-15T10:15:28.027Z,6.40
2018-12-15T10:16:28.016Z,9.19
2018-12-15T10:17:28.006Z,12.19
2018-12-15T10:18:28.001Z,6.90
2018-12-15T10:19:27.985Z,6.00
2018-12-15T10:20:27.975Z,4.50
2018-12-15T10:21:27.960Z,6.19
2018-12-15T10:22:27.949Z,7.69
2018-12-15T10:23:27.938Z,7.80
2018-12-15T10:24:27.936Z,6.90
2018-12-15T10:25:27.915Z,6.09
2018-12-15T10:26:27.904Z,6.40
2018-12-15T10:27:27.902Z,6.30
2018-12-15T10:28:27.883Z,5.90
2018-12-15T10:29:27.872Z,6.80
2018-12-15T10:30:27.865Z,7.50
2018-12-15T10:31:27.849Z,7.00
2018-12-15T10:32:27.838Z,7.40
2018-12-15T10:33:27.826Z,8.50
2018-12-15T10:34:27.821Z,6.80
2018-12-15T10:35:27.809Z,7.19
2018-12-15T10:36:27.799Z,7.80
2018-12-15T10:37:27.787Z,6.30
2018-12-15T10:38:27.772Z,7.00
2018-12-15T10:39:27.759Z,6.09
2018-12-15T10:40:27.749Z,6.19
2018-12-15T10:41:27.737Z,6.59
2018-12-15T10:42:27.724Z,7.59
2018-12-15T10:43:27.715Z,8.39
2018-12-15T10:44:27.702Z,7.19
2018-12-15T10:45:27.691Z,6.80
2018-12-15T10:46:27.681Z,6.90
2018-12-15T10:47:27.670Z,10.89
2018-12-15T10:48:27.672Z,6.19
2018-12-15T10:49:30.650Z,6.50
2018-12-15T10:50:27.635Z,12.89
2018-12-15T10:51:27.632Z,7.19
2018-12-15T10:52:27.621Z,7.50
2018-12-15T10:53:27.602Z,6.59
2018-12-15T10:54:27.591Z,7.30
2018-12-15T10:55:27.586Z,6.90
2018-12-15T10:56:27.569Z,7.30
2018-12-15T10:57:27.560Z,7.50
2018-12-15T10:58:27.554Z,7.19
2018-12-15T10:59:27.539Z,7.09
2018-12-15T11:00:27.524Z,6.50
2018-12-15T11:01:27.514Z,6.59
2018-12-15T11:02:27.503Z,6.50
2018-12-15T11:03:27.498Z,7.00
2018-12-15T11:04:27.482Z,6.00
2018-12-15T11:05:27.475Z,9.89
2018-12-15T11:06:27.464Z,8.19
2018-12-15T11:07:27.455Z,7.30
2018-12-15T11:08:27.435Z,7.69
2018-12-15T11:09:27.432Z,7.59
2018-12-15T11:10:27.414Z,7.69
2018-12-15T11:11:27.407Z,10.69
2018-12-15T11:12:27.391Z,6.80
2018-12-15T11:13:27.394Z,6.69
2018-12-15T11:14:27.369Z,5.59
2018-12-15T11:15:27.365Z,7.19
2018-12-15T11:16:27.349Z,7.40
2018-12-15T11:17:27.335Z,7.09
2018-12-15T11:18:27.325Z,10.10
2018-12-15T11:19:27.314Z,8.00
2018-12-15T11:20:27.304Z,8.30
2018-12-15T11:21:27.300Z,9.00
2018-12-15T11:22:27.279Z,7.59
2018-12-15T11:23:27.269Z,6.50
2018-12-15T11:24:27.267Z,6.90
2018-12-15T11:25:27.249Z,6.90
2018-12-15T11:26:27.236Z,6.40
2018-12-15T11:27:27.223Z,6.80
2018-12-15T11:28:27.212Z,6.19
2018-12-15T11:29:27.203Z,8.60
2018-12-15T11:30:27.190Z,8.10
2018-12-15T11:31:27.179Z,7.40
2018-12-15T11:32:27.168Z,8.19
2018-12-15T11:33:27.157Z,6.90
2018-12-15T11:34:27.148Z,6.50
2018-12-15T11:35:27.134Z,6.59
2018-12-15T11:36:27.123Z,7.30
2018-12-15T11:37:27.132Z,7.69
2018-12-15T11:38:27.101Z,6.90
2018-12-15T11:39:27.091Z,9.60
2018-12-15T11:40:27.081Z,6.69
2018-12-15T11:41:27.069Z,6.80
2018-12-15T11:42:27.064Z,7.30
2018-12-15T11:43:27.047Z,9.39
2018-12-15T11:44:27.040Z,6.80
2018-12-15T11:45:27.028Z,7.19
2018-12-15T11:46:27.015Z,6.90
2018-12-15T11:47:27.001Z,6.30
2018-12-15T11:48:26.991Z,7.90
2018-12-15T11:49:26.987Z,9.00
2018-12-15T11:50:26.969Z,9.50
2018-12-15T11:51:26.960Z,8.39
2018-12-15T11:52:26.954Z,7.59
2018-12-15T11:53:26.936Z,9.19
2018-12-15T11:54:26.923Z,8.00
2018-12-15T11:55:26.916Z,6.69
2018-12-15T11:56:26.909Z,11.00
2018-12-15T11:57:26.890Z,9.80
2018-12-15T11:58:26.879Z,7.00
2018-12-15T11:59:26.868Z,7.19
2018-12-15T12:00:26.863Z,7.50
2018-12-15T12:01:26.848Z,6.50
2018-12-15T12:02:31.874Z,7.09
2018-12-15T12:03:26.823Z,7.69
2018-12-15T12:04:26.818Z,8.50
2018-12-15T12:05:26.804Z,6.90
2018-12-15T12:06:26.796Z,7.50
2018-12-15T12:07:26.778Z,7.50
2018-12-15T12:08:26.772Z,7.59
2018-12-15T12:09:26.754Z,8.89
2018-12-15T12:10:26.743Z,7.40
2018-12-15T12:11:26.738Z,7.80
2018-12-15T12:12:26.725Z,9.00
2018-12-15T12:13:26.710Z,9.10
2018-12-15T12:14:26.702Z,7.90
2018-12-15T12:15:26.696Z,8.10
2018-12-15T12:16:26.677Z,8.69
2018-12-15T12:17:26.662Z,7.69
2018-12-15T12:18:26.663Z,6.40
2018-12-15T12:19:26.642Z,9.60
2018-12-15T12:20:26.628Z,7.50
2018-12-15T12:21:26.618Z,7.69
2018-12-15T12:22:26.607Z,8.10
2018-12-15T12:23:26.602Z,8.60
2018-12-15T12:24:26.583Z,14.00
2018-12-15T12:25:26.571Z,10.60
2018-12-15T12:26:26.559Z,8.30
2018-12-15T12:27:26.552Z,7.40
2018-12-15T12:28:26.537Z,7.80
2018-12-15T12:29:26.525Z,8.60
2018-12-15T12:30:26.516Z,8.60
2018-12-15T12:31:26.502Z,9.00
2018-12-15T12:32:26.493Z,9.80
2018-12-15T12:33:26.481Z,7.19
2018-12-15T12:34:26.470Z,7.09
2018-12-15T12:35:26.457Z,7.40
2018-12-15T12:36:26.446Z,7.09
2018-12-15T12:37:26.433Z,7.09
2018-12-15T12:38:26.428Z,8.80
2018-12-15T12:39:26.414Z,8.19
2018-12-15T12:40:26.400Z,9.80
2018-12-15T12:41:26.387Z,8.30
2018-12-15T12:42:26.378Z,8.30
2018-12-15T12:43:26.365Z,10.19
2018-12-15T12:44:26.361Z,9.10
2018-12-15T12:45:26.342Z,7.30
2018-12-15T12:46:26.336Z,7.30
2018-12-15T12:47:26.320Z,8.60
2018-12-15T12:48:26.307Z,9.10
2018-12-15T12:49:26.302Z,9.69
2018-12-15T12:50:26.287Z,8.30
2018-12-15T12:51:26.273Z,8.19
2018-12-15T12:52:26.268Z,8.80
2018-12-15T12:53:26.250Z,7.69
2018-12-15T12:54:26.243Z,7.59
2018-12-15T12:55:26.234Z,7.19
2018-12-15T12:56:26.219Z,7.80
2018-12-15T12:57:26.207Z,8.50
2018-12-15T12:58:26.197Z,8.19
2018-12-15T12:59:26.185Z,10.89
2018-12-15T13:00:26.169Z,8.60
2018-12-15T13:01:26.159Z,8.30
2018-12-15T13:02:26.147Z,8.69
2018-12-15T13:03:26.158Z,8.89
2018-12-15T13:04:26.133Z,8.30
2018-12-15T13:05:26.112Z,9.60
2018-12-15T13:06:26.103Z,9.50
2018-12-15T13:07:26.094Z,7.19
2018-12-15T13:08:26.078Z,7.09
2018-12-15T13:09:26.072Z,7.30
2018-12-15T13:10:26.055Z,8.89
2018-12-15T13:11:26.049Z,8.50
2018-12-15T13:12:26.035Z,9.00
2018-12-15T13:13:26.020Z,9.50
2018-12-15T13:14:26.019Z,10.69
2018-12-15T13:15:25.999Z,9.69
2018-12-15T13:16:25.987Z,10.30
2018-12-15T13:17:25.976Z,8.89
2018-12-15T13:18:25.962Z,9.39
2018-12-15T13:19:25.951Z,12.69
2018-12-15T13:20:25.940Z,9.19
2018-12-15T13:21:25.927Z,11.00
2018-12-15T13:22:25.917Z,9.10
2018-12-15T13:23:25.909Z,12.80
2018-12-15T13:24:25.894Z,9.30
2018-12-15T13:25:25.884Z,8.50
2018-12-15T13:26:25.877Z,10.19
2018-12-15T13:27:25.870Z,10.00
2018-12-15T13:28:25.847Z,8.69
2018-12-15T13:29:25.844Z,7.59
2018-12-15T13:30:25.828Z,8.89
2018-12-15T13:31:25.815Z,9.39